Ebensburg, Pennsylvania
Current Conditions -  °F | °C
As of 4:19 AM on Monday 24 Nov 2014 (Local Time) from KJST Reporting Station
Overcast Overcast  
Wind Chill: 51°   Ceiling: 4300
Heat Index: 51°   Visibility: 10mi
Dew Point: 49°   Wind: 15mph
Humidity: 92%   Direction: 160°SSE
Pressure: 29.51"   Gusts: NA
Location:  40.49°N, 78.72°W
Report Text: KJST 240919Z AUTO 16013KT 10SM SCT007 SCT011 OVC043 11/09 A2951 RMK AO2 T01060094
Loading
Personal Weather Stations






























Interactive Weather Map New forecast layout! Learn more

10-Day Weather Forecast

Advertisements
Track Severe Weather on mobile